Time;durP1;ratioP1;P1;durP2;ratioP2;P2;SDS_P1;SDS_P2;PMS_P1;PMS_P2;Temp;Humidity;BMP_temperature;BMP_pressure;BME280_temperature;BME280_humidity;BME280_pressure;Samples;Min_cycle;Max_cycle;Signal;HPM_P1;HPM_P2
2022/07/01 00:01:43;;;;;;;6.70;3.37;;;22.90;70.30;;;;;;5020703;28;20488;-78
2022/07/01 00:04:12;;;;;;;8.33;3.47;;;22.80;70.50;;;;;;5023139;28;20486;-78
2022/07/01 00:06:40;;;;;;;5.63;3.53;;;22.80;70.70;;;;;;5022872;28;20464;-78
2022/07/01 00:09:08;;;;;;;10.67;4.03;;;22.80;70.70;;;;;;5024986;28;20542;-78
2022/07/01 00:11:37;;;;;;;8.57;4.30;;;22.80;70.90;;;;;;5023169;28;20452;-78
2022/07/01 00:14:05;;;;;;;9.30;3.50;;;22.70;71.10;;;;;;5022562;28;20469;-78
2022/07/01 00:16:33;;;;;;;21.90;4.30;;;22.60;71.10;;;;;;5025087;28;20503;-78
2022/07/01 00:19:01;;;;;;;6.77;3.60;;;22.60;71.20;;;;;;5019782;28;20627;-78
2022/07/01 00:21:30;;;;;;;6.53;3.47;;;22.50;71.30;;;;;;5019702;28;20453;-78
2022/07/01 00:23:58;;;;;;;6.17;3.43;;;22.50;71.50;;;;;;5020720;28;20464;-79
2022/07/01 00:26:27;;;;;;;8.30;3.03;;;22.40;71.60;;;;;;5017263;28;20493;-79
2022/07/01 00:28:55;;;;;;;5.37;2.80;;;22.40;71.60;;;;;;5014387;28;20534;-79
2022/07/01 00:31:23;;;;;;;7.70;4.10;;;22.40;71.70;;;;;;4999136;28;21053;-79
2022/07/01 00:33:51;;;;;;;6.83;2.73;;;22.40;71.80;;;;;;5002950;28;20942;-79
2022/07/01 00:36:19;;;;;;;7.70;2.57;;;22.40;71.70;;;;;;5001029;28;20483;-81
2022/07/01 00:38:48;;;;;;;5.53;2.70;;;22.30;71.70;;;;;;5018854;28;20969;-79
2022/07/01 00:41:17;;;;;;;6.97;2.70;;;22.30;71.60;;;;;;5016763;28;20466;-79
2022/07/01 00:43:45;;;;;;;4.20;2.00;;;22.20;71.80;;;;;;5014927;28;20470;-79
2022/07/01 00:46:23;;;;;;;4.50;2.10;;;22.20;71.60;;;;;;5017207;28;20822;-79
2022/07/01 00:48:53;;;;;;;4.70;2.40;;;22.00;71.40;;;;;;5017579;28;20471;-78
2022/07/01 00:51:21;;;;;;;4.47;1.90;;;21.90;71.40;;;;;;5014747;28;20488;-79
2022/07/01 00:53:50;;;;;;;4.00;1.77;;;21.80;71.30;;;;;;5017823;28;20493;-79
2022/07/01 00:56:19;;;;;;;4.30;1.93;;;21.80;71.50;;;;;;5017244;28;20558;-78
2022/07/01 00:58:47;;;;;;;4.33;1.70;;;21.80;71.30;;;;;;5018906;28;20482;-79
2022/07/01 01:01:15;;;;;;;5.40;2.10;;;21.80;71.30;;;;;;5018770;28;20482;-79
2022/07/01 01:03:43;;;;;;;5.07;1.80;;;21.80;71.20;;;;;;5019036;28;20463;-78
2022/07/01 01:06:11;;;;;;;4.87;1.80;;;21.70;71.20;;;;;;5017042;28;20484;-79
2022/07/01 01:08:40;;;;;;;5.20;1.63;;;21.70;71.10;;;;;;5021146;28;20826;-79
2022/07/01 01:11:10;;;;;;;4.63;1.80;;;21.70;71.10;;;;;;5017481;28;20465;-79
2022/07/01 01:13:38;;;;;;;4.57;1.73;;;21.60;71.10;;;;;;5016231;28;20545;-79
2022/07/01 01:16:06;;;;;;;4.40;1.60;;;21.40;71.00;;;;;;5016050;28;20546;-80
2022/07/01 01:18:35;;;;;;;4.87;1.93;;;21.30;71.10;;;;;;5019022;28;20479;-80
2022/07/01 01:21:04;;;;;;;3.90;1.40;;;21.30;71.30;;;;;;5021670;28;20997;-80
2022/07/01 01:23:33;;;;;;;4.50;1.70;;;21.30;71.50;;;;;;5011635;28;20474;-78
2022/07/01 01:26:02;;;;;;;5.00;2.03;;;21.20;71.60;;;;;;5021993;28;20532;-78
2022/07/01 01:28:30;;;;;;;3.77;1.43;;;21.20;71.70;;;;;;5017310;28;20463;-78
2022/07/01 01:30:58;;;;;;;5.03;1.80;;;21.20;71.80;;;;;;4997178;28;20477;-78
2022/07/01 01:33:26;;;;;;;3.87;1.47;;;21.20;71.90;;;;;;5012141;28;20481;-78
2022/07/01 01:35:54;;;;;;;5.00;1.83;;;21.30;72.00;;;;;;5021582;28;20476;-78
2022/07/01 01:38:23;;;;;;;4.17;1.40;;;21.30;72.00;;;;;;5017442;28;20445;-78
2022/07/01 01:40:52;;;;;;;4.13;1.40;;;21.30;71.90;;;;;;5021261;28;21038;-78
2022/07/01 01:43:20;;;;;;;4.00;1.53;;;21.20;71.90;;;;;;5015051;28;20503;-79
2022/07/01 01:45:48;;;;;;;3.70;1.40;;;21.20;72.00;;;;;;5014485;28;20482;-80
2022/07/01 01:48:16;;;;;;;4.20;1.50;;;21.20;72.00;;;;;;5018425;28;20460;-79
2022/07/01 01:50:44;;;;;;;5.00;1.53;;;21.20;72.00;;;;;;5017132;28;20956;-80
2022/07/01 01:53:12;;;;;;;3.50;1.20;;;21.10;71.90;;;;;;5013006;28;20465;-80
2022/07/01 01:55:41;;;;;;;3.30;1.30;;;21.10;71.90;;;;;;5021378;28;20567;-79
2022/07/01 01:58:09;;;;;;;3.30;0.97;;;21.00;72.00;;;;;;5020458;28;20474;-79
2022/07/01 02:00:37;;;;;;;4.27;1.43;;;21.00;72.10;;;;;;5013685;28;20475;-80
2022/07/01 02:03:05;;;;;;;4.40;1.30;;;21.00;72.20;;;;;;5003179;28;21120;-80
2022/07/01 02:05:35;;;;;;;3.80;1.30;;;21.00;72.20;;;;;;5016197;28;20906;-79
2022/07/01 02:08:04;;;;;;;3.40;1.20;;;21.10;72.10;;;;;;5017467;28;20471;-80
2022/07/01 02:10:32;;;;;;;3.57;1.20;;;21.00;71.90;;;;;;5016637;28;20467;-80
2022/07/01 02:17:14;;;;;;;4.00;1.30;;;20.90;72.10;;;;;;5017526;28;20483;-78
2022/07/01 02:19:42;;;;;;;6.57;1.23;;;20.70;72.10;;;;;;5023138;28;20463;-79
2022/07/01 02:22:10;;;;;;;5.83;1.80;;;20.70;72.10;;;;;;5021887;28;20471;-79
2022/07/01 02:24:38;;;;;;;4.10;1.20;;;20.60;72.20;;;;;;5019834;28;20478;-79
2022/07/01 02:27:07;;;;;;;3.80;1.10;;;20.50;72.40;;;;;;5006322;28;20489;-79
2022/07/01 02:29:35;;;;;;;4.53;1.07;;;20.40;72.50;;;;;;5018733;28;20455;-80
2022/07/01 02:32:04;;;;;;;5.87;1.50;;;20.40;72.70;;;;;;5023834;28;21001;-79
2022/07/01 02:34:33;;;;;;;3.60;1.23;;;20.40;72.90;;;;;;5018602;28;20486;-79
2022/07/01 02:37:02;;;;;;;6.67;1.67;;;20.40;73.00;;;;;;5022581;28;20523;-79
2022/07/01 02:39:30;;;;;;;4.00;1.43;;;20.40;73.10;;;;;;5021457;28;20462;-79
2022/07/01 02:44:44;;;;;;;3.80;1.00;;;20.40;73.00;;;;;;5026446;28;20485;-79
2022/07/01 02:47:12;;;;;;;3.70;1.10;;;20.40;73.10;;;;;;5023751;28;20490;-78
2022/07/01 02:49:41;;;;;;;3.47;1.10;;;20.40;73.10;;;;;;5024202;28;20467;-79
2022/07/01 02:52:09;;;;;;;3.40;1.07;;;20.30;73.20;;;;;;5024515;28;20467;-78
2022/07/01 02:54:37;;;;;;;4.77;1.30;;;20.20;73.20;;;;;;5024157;28;20490;-78
2022/07/01 02:57:06;;;;;;;3.50;1.10;;;20.10;73.20;;;;;;5025394;28;20824;-79
2022/07/01 02:59:34;;;;;;;4.53;1.30;;;20.00;73.30;;;;;;5021557;28;20464;-79
2022/07/01 03:02:02;;;;;;;6.67;0.90;;;20.00;73.50;;;;;;5019440;28;20501;-79
2022/07/01 03:04:30;;;;;;;3.63;1.10;;;19.90;73.70;;;;;;5025433;28;20469;-79
2022/07/01 03:07:00;;;;;;;4.50;1.40;;;19.90;73.90;;;;;;5023063;28;20460;-79
2022/07/01 03:09:28;;;;;;;3.53;1.30;;;19.90;73.70;;;;;;5026855;28;20485;-79
2022/07/01 03:11:56;;;;;;;4.40;1.47;;;19.90;73.90;;;;;;5023990;28;20466;-79
2022/07/01 03:14:24;;;;;;;4.00;1.30;;;19.80;74.00;;;;;;5024055;28;20462;-79
2022/07/01 03:16:52;;;;;;;7.03;1.60;;;19.80;74.10;;;;;;4999012;28;21030;-79
2022/07/01 03:19:20;;;;;;;3.63;1.43;;;19.80;74.10;;;;;;5021988;28;20476;-79
2022/07/01 03:21:48;;;;;;;5.00;1.47;;;19.90;74.20;;;;;;5021436;28;20479;-79
2022/07/01 03:24:17;;;;;;;5.53;1.40;;;19.90;74.30;;;;;;5020265;28;20486;-79
2022/07/01 03:26:45;;;;;;;4.10;1.43;;;20.00;74.20;;;;;;5024485;28;20473;-79
2022/07/01 03:29:13;;;;;;;4.17;1.30;;;20.00;74.30;;;;;;5003317;28;20456;-79
2022/07/01 03:31:41;;;;;;;3.97;1.57;;;20.00;74.30;;;;;;5004359;28;20493;-79
2022/07/01 03:34:09;;;;;;;3.60;1.27;;;20.00;74.20;;;;;;5026945;28;20458;-79
2022/07/01 03:36:37;;;;;;;5.77;1.13;;;20.10;74.30;;;;;;5022336;28;20465;-78
2022/07/01 03:39:05;;;;;;;4.33;1.40;;;20.10;74.40;;;;;;5023719;28;20488;-78
2022/07/01 03:41:34;;;;;;;4.50;1.30;;;20.20;74.40;;;;;;5025416;28;20486;-78
2022/07/01 03:44:03;;;;;;;4.37;1.37;;;20.20;74.30;;;;;;5024759;28;20469;-80
2022/07/01 03:46:31;;;;;;;5.37;1.50;;;20.20;74.30;;;;;;5017968;28;20506;-80
2022/07/01 03:48:59;;;;;;;4.17;1.80;;;20.30;74.30;;;;;;5002702;28;20501;-80
2022/07/01 03:51:29;;;;;;;4.40;1.80;;;20.30;74.20;;;;;;5024145;28;20465;-80
2022/07/01 03:56:44;;;;;;;4.40;1.80;;;20.30;74.20;;;;;;5018598;28;20466;-78
2022/07/01 03:59:12;;;;;;;3.57;1.57;;;20.30;74.20;;;;;;5017008;28;20567;-78
2022/07/01 04:01:39;;;;;;;4.67;1.60;;;20.30;74.20;;;;;;5018718;28;20493;-78
2022/07/01 04:04:08;;;;;;;3.70;1.40;;;20.30;74.20;;;;;;5022327;28;20454;-78
2022/07/01 04:06:36;;;;;;;4.10;1.57;;;20.30;74.20;;;;;;5010362;28;20510;-78
2022/07/01 04:09:12;;;;;;;3.90;1.37;;;20.30;74.10;;;;;;4999763;28;20831;-78
2022/07/01 04:11:40;;;;;;;6.50;2.30;;;20.20;74.10;;;;;;5017536;28;20452;-79
2022/07/01 04:14:10;;;;;;;4.57;1.70;;;20.20;73.90;;;;;;5022393;28;20470;-79
2022/07/01 04:16:38;;;;;;;4.03;1.90;;;20.00;74.00;;;;;;5006863;28;20479;-78
2022/07/01 04:19:07;;;;;;;3.70;1.40;;;20.00;74.20;;;;;;5025843;28;20569;-76
2022/07/01 04:24:22;;;;;;;4.07;1.70;;;19.90;74.20;;;;;;5022035;28;20466;-78
2022/07/01 04:26:50;;;;;;;5.27;1.40;;;19.90;74.30;;;;;;5014881;28;20461;-78
2022/07/01 04:29:20;;;;;;;4.30;1.60;;;19.90;74.40;;;;;;5019212;28;20497;-78
2022/07/01 04:31:49;;;;;;;3.77;1.57;;;19.90;74.40;;;;;;5018561;28;20556;-79
2022/07/01 04:34:18;;;;;;;4.50;2.00;;;19.90;74.30;;;;;;5024251;28;20467;-79
2022/07/01 04:36:46;;;;;;;3.87;1.33;;;19.90;74.30;;;;;;5021606;28;20473;-79
2022/07/01 04:39:14;;;;;;;3.40;1.30;;;19.90;74.30;;;;;;5021247;28;20470;-79
2022/07/01 04:42:00;;;;;;;3.80;1.33;;;19.90;74.30;;;;;;5023333;28;20493;-76
2022/07/01 04:44:31;;;;;;;3.80;1.33;;;19.80;74.30;;;;;;5020545;28;20488;-75
2022/07/01 04:47:00;;;;;;;3.30;1.20;;;19.70;74.20;;;;;;5014581;28;20471;-76
2022/07/01 04:49:29;;;;;;;3.70;1.60;;;19.70;74.40;;;;;;5013403;28;20454;-76
2022/07/01 04:51:57;;;;;;;4.50;1.60;;;19.70;74.60;;;;;;5014446;28;20472;-76
2022/07/01 04:54:26;;;;;;;5.37;1.70;;;19.60;74.60;;;;;;4999570;28;20463;-76
2022/07/01 04:56:54;;;;;;;4.50;1.90;;;19.60;74.60;;;;;;5013130;28;20444;-76
2022/07/01 04:59:22;;;;;;;7.30;1.80;;;19.50;74.70;;;;;;5012342;28;20484;-76
2022/07/01 05:01:51;;;;;;;3.60;1.60;;;19.50;74.80;;;;;;5010577;28;20525;-76
2022/07/01 05:04:20;;;;;;;4.93;1.70;;;19.50;74.80;;;;;;5015915;28;20466;-75
2022/07/01 05:06:50;;;;;;;4.23;1.30;;;19.50;75.00;;;;;;5015842;28;20999;-76
2022/07/01 05:09:18;;;;;;;3.80;1.63;;;19.50;75.00;;;;;;5015136;28;20470;-75
2022/07/01 05:11:51;;;;;;;3.80;1.50;;;19.60;75.00;;;;;;5016521;28;20533;-76
2022/07/01 05:14:19;;;;;;;4.00;1.50;;;19.50;74.90;;;;;;5015173;28;20979;-75
2022/07/01 05:16:47;;;;;;;4.00;1.70;;;19.50;74.90;;;;;;5017366;28;20483;-76
2022/07/01 05:22:05;;;;;;;3.50;1.40;;;19.50;75.00;;;;;;4993615;28;20485;-75
2022/07/01 05:24:33;;;;;;;8.90;1.90;;;19.50;75.00;;;;;;4997996;28;20488;-76
2022/07/01 05:27:03;;;;;;;3.97;1.50;;;19.40;75.00;;;;;;5015765;28;20876;-76
2022/07/01 05:29:31;;;;;;;5.53;1.70;;;19.40;75.00;;;;;;5021526;28;20453;-76
2022/07/01 05:31:59;;;;;;;6.20;1.90;;;19.40;75.10;;;;;;5010932;28;20553;-76
2022/07/01 05:34:28;;;;;;;5.73;1.47;;;19.40;75.20;;;;;;5010183;28;22123;-76
2022/07/01 05:36:56;;;;;;;3.63;1.53;;;19.40;75.20;;;;;;5015210;28;20458;-76
2022/07/01 05:39:25;;;;;;;4.10;1.80;;;19.40;75.20;;;;;;5013126;28;20462;-75
2022/07/01 05:41:52;;;;;;;4.13;1.73;;;19.40;75.20;;;;;;5019439;28;20518;-76
2022/07/01 05:44:21;;;;;;;4.47;1.50;;;19.40;75.20;;;;;;5018762;28;20480;-75
2022/07/01 05:46:49;;;;;;;3.93;1.50;;;19.30;75.30;;;;;;5019984;28;20765;-75
2022/07/01 05:49:17;;;;;;;3.93;1.40;;;19.30;75.30;;;;;;5014172;28;20469;-76
2022/07/01 05:51:47;;;;;;;4.17;1.70;;;19.30;75.20;;;;;;5013745;28;20477;-76
2022/07/01 05:54:15;;;;;;;5.63;1.60;;;19.30;75.30;;;;;;5021797;28;21169;-77
2022/07/01 05:56:43;;;;;;;4.40;1.40;;;19.30;75.20;;;;;;5020587;28;20541;-76
2022/07/01 05:59:11;;;;;;;3.67;1.30;;;19.30;75.30;;;;;;5020681;28;20461;-76
2022/07/01 06:01:39;;;;;;;4.37;1.67;;;19.30;75.30;;;;;;5020178;28;20849;-76
2022/07/01 06:04:07;;;;;;;3.80;1.40;;;19.30;75.40;;;;;;5021912;28;20784;-76
2022/07/01 06:06:35;;;;;;;4.37;1.60;;;19.30;75.40;;;;;;5025870;28;20564;-76
2022/07/01 06:09:05;;;;;;;4.53;1.63;;;19.30;75.30;;;;;;5027626;28;20963;-76
2022/07/01 06:11:32;;;;;;;3.40;1.10;;;19.30;75.30;;;;;;5024162;28;20853;-76
2022/07/01 06:14:00;;;;;;;4.60;1.40;;;19.40;75.40;;;;;;5021988;28;20450;-76
2022/07/01 06:16:28;;;;;;;3.43;1.07;;;19.40;75.30;;;;;;5009689;28;20478;-76
2022/07/01 06:18:59;;;;;;;4.03;1.23;;;19.40;75.30;;;;;;5026541;28;20454;-76
2022/07/01 06:21:27;;;;;;;4.40;1.30;;;19.50;75.40;;;;;;5004488;28;20506;-75
2022/07/01 06:23:55;;;;;;;4.07;1.30;;;19.50;75.50;;;;;;5021876;28;20475;-76
2022/07/01 06:26:25;;;;;;;4.57;1.30;;;19.50;75.40;;;;;;5022553;28;20487;-76
2022/07/01 06:28:53;;;;;;;3.67;1.17;;;19.60;75.40;;;;;;5018796;28;20447;-76
2022/07/01 06:31:23;;;;;;;3.70;1.40;;;19.60;75.30;;;;;;5018940;28;20502;-76
2022/07/01 06:33:52;;;;;;;4.17;1.30;;;19.60;75.40;;;;;;5018663;28;20461;-76
2022/07/01 06:36:20;;;;;;;3.40;1.20;;;19.60;75.30;;;;;;5018807;28;20488;-78
2022/07/01 06:38:48;;;;;;;3.70;1.30;;;19.60;75.30;;;;;;5018985;28;20465;-77
2022/07/01 06:41:28;;;;;;;3.70;1.40;;;19.60;75.20;;;;;;5020670;28;20461;-78
2022/07/01 06:43:58;;;;;;;3.90;1.30;;;19.60;75.20;;;;;;4999511;28;20479;-77
2022/07/01 06:46:27;;;;;;;3.90;1.50;;;19.60;75.20;;;;;;5017893;28;20475;-77
2022/07/01 06:48:58;;;;;;;4.00;1.57;;;19.60;75.20;;;;;;5021606;28;20465;-77
2022/07/01 06:51:26;;;;;;;9.93;2.30;;;19.60;75.20;;;;;;5014965;28;20461;-77
2022/07/01 06:53:54;;;;;;;4.20;1.13;;;19.70;75.10;;;;;;5016555;28;20542;-77
2022/07/01 06:56:22;;;;;;;6.63;1.30;;;19.70;75.10;;;;;;5021487;28;20484;-77
2022/07/01 06:58:50;;;;;;;3.97;1.33;;;19.70;75.10;;;;;;5020801;28;20509;-77
2022/07/01 07:01:20;;;;;;;4.40;1.13;;;19.80;75.00;;;;;;5000661;28;20482;-77
2022/07/01 07:03:48;;;;;;;5.43;1.30;;;19.80;74.80;;;;;;5019686;28;20493;-77
2022/07/01 07:06:16;;;;;;;4.00;1.17;;;19.80;74.80;;;;;;5017239;28;20478;-77
2022/07/01 07:08:44;;;;;;;3.73;1.43;;;19.90;74.70;;;;;;5001946;28;20477;-77
2022/07/01 07:11:14;;;;;;;3.60;1.00;;;19.90;74.50;;;;;;5019090;28;20469;-77
2022/07/01 07:13:43;;;;;;;3.80;1.30;;;19.90;74.30;;;;;;5020350;28;20463;-77
2022/07/01 07:16:11;;;;;;;4.80;1.43;;;19.80;74.30;;;;;;5021957;28;20752;-77
2022/07/01 07:18:40;;;;;;;5.90;1.30;;;19.80;74.20;;;;;;5018466;28;20460;-77
2022/07/01 07:21:09;;;;;;;3.67;1.20;;;19.80;74.10;;;;;;5013117;28;20462;-77
2022/07/01 07:23:37;;;;;;;4.63;1.10;;;19.80;74.10;;;;;;5013152;28;20572;-77
2022/07/01 07:26:05;;;;;;;4.90;1.23;;;19.80;74.10;;;;;;5024300;28;20505;-77
2022/07/01 07:28:33;;;;;;;3.33;0.90;;;19.80;74.00;;;;;;5021633;28;20485;-77
2022/07/01 07:31:01;;;;;;;4.87;0.97;;;19.80;73.90;;;;;;5004478;28;20492;-77
2022/07/01 07:33:29;;;;;;;4.50;1.20;;;19.80;73.90;;;;;;5019483;28;20451;-77
2022/07/01 07:35:58;;;;;;;4.30;1.30;;;19.80;73.80;;;;;;5018224;28;20486;-77
2022/07/01 07:38:26;;;;;;;4.23;1.20;;;19.80;73.70;;;;;;5005308;28;20468;-77
2022/07/01 07:40:54;;;;;;;4.73;1.00;;;19.80;73.60;;;;;;5016493;28;20463;-77
2022/07/01 07:43:22;;;;;;;3.80;1.23;;;19.70;73.80;;;;;;5016739;28;21393;-77
2022/07/01 07:45:51;;;;;;;4.03;1.10;;;19.70;73.70;;;;;;5020830;28;20478;-77
2022/07/01 07:48:19;;;;;;;5.13;1.57;;;19.70;73.80;;;;;;5017267;28;20460;-77
2022/07/01 07:50:48;;;;;;;4.87;1.93;;;19.70;73.90;;;;;;5017236;28;20459;-77
2022/07/01 07:53:17;;;;;;;5.50;1.67;;;19.70;73.90;;;;;;5020084;28;20486;-77
2022/07/01 07:55:45;;;;;;;4.50;1.70;;;19.60;73.90;;;;;;5019088;28;20481;-77
2022/07/01 07:58:13;;;;;;;3.90;1.50;;;19.60;74.00;;;;;;5020152;28;20454;-77
2022/07/01 08:00:41;;;;;;;5.00;1.73;;;19.60;74.00;;;;;;5019120;28;20475;-77
2022/07/01 08:03:09;;;;;;;7.23;1.40;;;19.60;74.20;;;;;;5000498;28;20490;-77
2022/07/01 08:05:37;;;;;;;4.77;1.60;;;19.70;74.20;;;;;;5008248;28;20552;-77
2022/07/01 08:08:06;;;;;;;5.23;1.27;;;19.70;74.30;;;;;;5019643;28;20463;-77
2022/07/01 08:10:35;;;;;;;4.43;1.40;;;19.70;74.20;;;;;;5007694;28;20458;-77
2022/07/01 08:13:04;;;;;;;4.10;1.73;;;19.70;74.40;;;;;;5016627;28;20459;-77
2022/07/01 08:15:33;;;;;;;4.87;1.33;;;19.70;74.50;;;;;;5003410;28;20467;-77
2022/07/01 08:18:01;;;;;;;4.10;1.60;;;19.70;74.50;;;;;;5022778;28;20474;-78
2022/07/01 08:20:29;;;;;;;4.43;1.73;;;19.70;74.40;;;;;;5017249;28;20468;-77
2022/07/01 08:22:57;;;;;;;3.67;1.33;;;19.70;74.50;;;;;;5018463;28;20456;-77
2022/07/01 08:25:25;;;;;;;3.53;1.20;;;19.70;74.40;;;;;;5020773;28;20541;-77
2022/07/01 08:28:03;;;;;;;3.57;1.10;;;19.70;74.50;;;;;;5017636;28;20456;-77
2022/07/01 08:30:31;;;;;;;3.70;1.40;;;19.70;74.60;;;;;;5018667;28;20558;-77
2022/07/01 08:32:59;;;;;;;7.60;1.30;;;19.70;74.60;;;;;;5021144;28;20959;-77
2022/07/01 08:35:28;;;;;;;4.17;1.53;;;19.60;74.70;;;;;;5001071;28;20500;-77
2022/07/01 08:37:58;;;;;;;4.50;1.33;;;19.60;74.80;;;;;;5017439;28;20459;-77
2022/07/01 08:40:27;;;;;;;3.80;1.40;;;19.60;74.90;;;;;;5017816;28;20556;-77
2022/07/01 08:42:59;;;;;;;4.13;1.87;;;19.60;74.90;;;;;;5015980;28;20470;-78
2022/07/01 08:45:30;;;;;;;4.40;1.43;;;19.60;75.10;;;;;;5004525;28;20471;-77
2022/07/01 08:48:01;;;;;;;3.77;1.30;;;19.70;75.20;;;;;;5019027;28;20548;-77
2022/07/01 08:50:30;;;;;;;3.60;1.33;;;19.70;75.30;;;;;;5019305;28;20984;-77
2022/07/01 08:52:59;;;;;;;4.50;1.50;;;19.70;75.00;;;;;;5004524;28;20481;-77
2022/07/01 08:55:28;;;;;;;3.60;1.17;;;19.70;75.00;;;;;;5018587;28;21053;-77
2022/07/01 08:57:56;;;;;;;3.60;1.20;;;19.70;75.10;;;;;;5018779;28;20989;-77
2022/07/01 09:00:32;;;;;;;5.90;1.23;;;19.70;75.00;;;;;;5015282;28;20974;-77
2022/07/01 09:03:01;;;;;;;4.80;1.40;;;19.70;75.20;;;;;;5013243;28;21007;-77
2022/07/01 09:05:37;;;;;;;4.43;1.63;;;19.80;75.10;;;;;;5016262;28;20486;-78
2022/07/01 09:08:07;;;;;;;5.20;1.60;;;19.80;75.20;;;;;;5023249;28;20465;-78
2022/07/01 09:10:35;;;;;;;4.33;1.50;;;19.70;75.10;;;;;;5021193;28;20460;-77
2022/07/01 09:13:08;;;;;;;3.50;1.17;;;19.70;75.20;;;;;;5016937;28;20475;-78
2022/07/01 09:15:38;;;;;;;4.17;1.47;;;19.70;75.20;;;;;;5019756;28;20473;-77
2022/07/01 09:18:10;;;;;;;6.43;1.50;;;19.60;75.20;;;;;;5022190;28;20461;-77
2022/07/01 09:20:40;;;;;;;3.50;1.20;;;19.60;75.20;;;;;;5019976;28;20477;-78
2022/07/01 09:23:11;;;;;;;4.27;1.30;;;19.60;75.20;;;;;;5016277;28;20550;-78
2022/07/01 09:25:43;;;;;;;4.00;1.17;;;19.60;75.20;;;;;;5002095;28;20497;-77
2022/07/01 09:28:23;;;;;;;3.50;1.30;;;19.60;75.20;;;;;;5013754;28;20497;-78
2022/07/01 09:30:54;;;;;;;4.40;1.10;;;19.50;75.10;;;;;;5016142;28;20471;-77
2022/07/01 09:33:23;;;;;;;6.70;1.40;;;19.50;75.10;;;;;;5010138;28;20523;-77
2022/07/01 09:35:53;;;;;;;4.63;1.60;;;19.40;75.20;;;;;;5014697;28;20471;-78
2022/07/01 09:38:22;;;;;;;4.53;1.43;;;19.40;75.30;;;;;;5014974;28;20477;-77
2022/07/01 09:41:01;;;;;;;3.60;1.13;;;19.40;75.30;;;;;;4994965;28;20492;-77
2022/07/01 09:43:33;;;;;;;5.27;1.47;;;19.40;75.40;;;;;;5004351;28;20480;-77
2022/07/01 09:46:05;;;;;;;7.47;1.40;;;19.40;75.40;;;;;;5019227;28;20477;-77
2022/07/01 09:48:46;;;;;;;4.00;1.50;;;19.50;75.40;;;;;;5017256;28;20510;-77
2022/07/01 09:51:16;;;;;;;5.17;2.00;;;19.50;75.50;;;;;;5017538;28;20449;-77
2022/07/01 09:53:44;;;;;;;5.00;1.70;;;19.50;75.50;;;;;;5015810;28;20464;-77
2022/07/01 09:56:12;;;;;;;6.47;1.93;;;19.60;75.50;;;;;;5016506;28;20584;-77
2022/07/01 09:58:42;;;;;;;4.33;1.73;;;19.60;75.50;;;;;;5012717;28;20480;-77
2022/07/01 10:01:15;;;;;;;6.13;1.80;;;19.70;75.40;;;;;;5002362;28;21365;-77
2022/07/01 10:03:44;;;;;;;3.80;1.50;;;19.70;75.40;;;;;;5017397;28;20461;-77
2022/07/01 10:06:47;;;;;;;4.00;1.70;;;19.70;75.50;;;;;;4996734;28;20497;-77
2022/07/01 10:09:33;;;;;;;5.50;1.70;;;19.70;75.40;;;;;;5018964;28;20480;-78
2022/07/01 10:12:21;;;;;;;7.67;3.30;;;19.70;75.20;;;;;;5012896;28;20461;-78
2022/07/01 10:14:50;;;;;;;5.40;2.07;;;19.70;75.20;;;;;;5013684;28;20547;-78
2022/07/01 10:17:29;;;;;;;4.03;1.87;;;19.70;75.20;;;;;;5014634;28;20849;-78
2022/07/01 10:20:06;;;;;;;5.00;1.60;;;19.70;75.20;;;;;;5012730;28;20450;-78
2022/07/01 10:22:36;;;;;;;8.20;1.97;;;19.60;75.10;;;;;;5017320;28;20494;-78
2022/07/01 10:25:50;;;;;;;5.23;2.17;;;19.60;75.10;;;;;;5010254;28;20879;-77
2022/07/01 10:28:26;;;;;;;4.10;1.77;;;19.60;75.10;;;;;;4985823;28;20454;-78
2022/07/01 10:30:57;;;;;;;4.77;1.90;;;19.60;75.10;;;;;;5016581;28;21101;-77
2022/07/01 10:33:48;;;;;;;5.10;1.90;;;19.60;75.00;;;;;;5011713;28;20840;-77
2022/07/01 10:36:26;;;;;;;4.60;1.80;;;19.50;75.10;;;;;;5014198;28;20477;-77
2022/07/01 10:39:13;;;;;;;6.10;2.30;;;19.60;75.20;;;;;;5013848;28;20453;-76
2022/07/01 10:41:54;;;;;;;5.90;2.00;;;19.60;75.20;;;;;;5019560;28;20453;-77
2022/07/01 10:45:01;;;;;;;6.40;2.50;;;19.60;75.30;;;;;;5018219;28;20495;-76
2022/07/01 10:47:29;;;;;;;3.87;1.60;;;19.60;75.30;;;;;;5003197;28;21177;-76
2022/07/01 10:50:06;;;;;;;5.27;2.10;;;19.70;75.30;;;;;;5000475;28;20457;-77
2022/07/01 10:52:35;;;;;;;4.83;2.13;;;19.70;75.40;;;;;;5003273;28;20475;-76
2022/07/01 10:55:05;;;;;;;4.53;2.13;;;19.70;75.20;;;;;;5019667;28;20483;-77
2022/07/01 10:57:39;;;;;;;4.37;1.90;;;19.70;75.20;;;;;;5016446;28;20450;-77
2022/07/01 11:00:34;;;;;;;4.37;2.20;;;19.70;75.10;;;;;;5018185;28;20951;-77
2022/07/01 11:03:20;;;;;;;5.03;2.10;;;19.70;75.10;;;;;;5002121;28;20502;-76
2022/07/01 11:05:52;;;;;;;6.47;2.20;;;19.70;75.00;;;;;;5013607;28;20511;-77
2022/07/01 11:08:21;;;;;;;4.93;2.07;;;19.70;75.00;;;;;;5020228;28;20454;-77
2022/07/01 11:11:01;;;;;;;5.80;2.50;;;19.70;75.10;;;;;;5019465;28;20979;-77
2022/07/01 11:13:30;;;;;;;4.80;2.37;;;19.70;75.10;;;;;;5018988;28;20489;-76
2022/07/01 11:15:58;;;;;;;4.73;2.27;;;19.70;75.00;;;;;;5019327;28;20491;-77
2022/07/01 11:18:26;;;;;;;4.83;2.40;;;19.70;75.10;;;;;;5015056;28;20471;-77
2022/07/01 11:21:08;;;;;;;6.50;2.83;;;19.60;75.00;;;;;;5005539;28;20464;-77
2022/07/01 11:23:36;;;;;;;5.40;2.67;;;19.60;75.10;;;;;;5016588;28;20458;-77
2022/07/01 11:26:22;;;;;;;6.60;2.30;;;19.60;75.20;;;;;;5017824;28;20501;-77
2022/07/01 11:28:50;;;;;;;5.13;2.30;;;19.60;75.30;;;;;;5013732;28;21297;-76
2022/07/01 11:31:30;;;;;;;8.60;3.00;;;19.70;75.20;;;;;;5015043;28;20474;-77
2022/07/01 11:33:59;;;;;;;6.73;3.20;;;19.70;75.20;;;;;;5016677;28;20467;-77
2022/07/01 11:39:23;;;;;;;6.83;4.13;;;19.60;75.20;;;;;;4998098;28;20466;-77
2022/07/01 11:41:56;;;;;;;8.80;2.60;;;19.70;75.30;;;;;;5000253;28;20572;-77
2022/07/01 11:44:32;;;;;;;6.50;2.43;;;19.70;75.40;;;;;;4996807;28;20467;-77
2022/07/01 11:47:01;;;;;;;6.37;2.47;;;19.80;75.40;;;;;;5018095;28;20470;-77
2022/07/01 11:49:29;;;;;;;4.93;2.07;;;19.80;75.40;;;;;;5020411;28;20459;-77
2022/07/01 11:52:01;;;;;;;5.10;2.50;;;19.90;75.30;;;;;;5016250;28;20478;-77
2022/07/01 11:54:29;;;;;;;5.90;2.97;;;20.00;75.40;;;;;;5000763;28;20860;-77
2022/07/01 11:57:09;;;;;;;6.40;2.80;;;20.10;75.30;;;;;;5001112;28;20454;-77
2022/07/01 11:59:38;;;;;;;4.50;2.20;;;20.20;75.20;;;;;;5015796;28;20452;-77
2022/07/01 12:02:08;;;;;;;4.87;2.37;;;20.20;75.10;;;;;;5016070;28;20533;-77
2022/07/01 12:04:36;;;;;;;6.03;2.43;;;20.30;74.80;;;;;;5016444;28;20503;-76
2022/07/01 12:07:07;;;;;;;5.17;2.10;;;20.30;74.70;;;;;;5015840;28;20944;-76
2022/07/01 12:09:35;;;;;;;5.40;2.40;;;20.40;74.60;;;;;;5020607;28;20559;-77
2022/07/01 12:12:05;;;;;;;6.30;2.20;;;20.40;74.50;;;;;;5023250;28;21138;-77
2022/07/01 12:14:35;;;;;;;7.33;2.33;;;20.50;74.30;;;;;;5021997;28;20782;-77
2022/07/01 12:17:05;;;;;;;6.27;2.30;;;20.50;74.20;;;;;;5022067;28;20481;-77
2022/07/01 12:19:39;;;;;;;9.90;2.37;;;20.60;74.10;;;;;;5021236;28;20540;-78
2022/07/01 12:22:12;;;;;;;6.33;2.37;;;20.70;74.10;;;;;;5018499;28;20862;-78
2022/07/01 12:24:41;;;;;;;7.00;2.33;;;20.80;74.00;;;;;;5020817;28;20469;-77
2022/07/01 12:27:10;;;;;;;5.07;2.20;;;20.80;73.70;;;;;;5025923;28;20832;-77
2022/07/01 12:29:53;;;;;;;4.60;1.80;;;20.90;73.50;;;;;;5024090;28;20590;-77
2022/07/01 12:32:23;;;;;;;6.90;2.20;;;20.90;73.30;;;;;;5013069;28;20517;-77
2022/07/01 12:34:53;;;;;;;6.10;1.97;;;20.90;72.30;;;;;;5019106;28;20480;-77
2022/07/01 12:37:39;;;;;;;4.90;1.80;;;20.90;72.60;;;;;;5012574;28;20468;-77
2022/07/01 12:40:08;;;;;;;4.50;2.10;;;20.90;72.20;;;;;;5017453;28;20460;-78
2022/07/01 12:42:38;;;;;;;4.50;1.90;;;20.90;72.30;;;;;;5014879;28;20896;-77
2022/07/01 12:45:09;;;;;;;9.83;2.83;;;21.00;72.40;;;;;;5014978;28;20469;-78
2022/07/01 12:47:39;;;;;;;7.00;2.10;;;21.10;72.10;;;;;;5017231;28;20478;-77
2022/07/01 12:50:16;;;;;;;7.63;1.87;;;21.10;71.90;;;;;;5016248;28;20470;-77
2022/07/01 12:52:58;;;;;;;4.83;2.00;;;21.20;71.70;;;;;;5004506;28;21271;-77
2022/07/01 12:55:27;;;;;;;6.47;1.93;;;21.10;71.30;;;;;;5019835;28;20567;-77
2022/07/01 12:57:58;;;;;;;4.10;1.80;;;21.10;71.40;;;;;;5015405;28;20689;-77
2022/07/01 13:00:27;;;;;;;3.90;1.90;;;21.10;71.40;;;;;;5014999;28;20477;-77
2022/07/01 13:02:58;;;;;;;4.20;2.20;;;21.20;71.30;;;;;;5014073;28;20529;-77
2022/07/01 13:05:27;;;;;;;4.33;2.10;;;21.20;71.10;;;;;;5011548;28;20573;-77
2022/07/01 13:07:56;;;;;;;8.20;2.00;;;21.30;71.00;;;;;;5018475;28;20460;-77
2022/07/01 13:10:25;;;;;;;3.90;1.70;;;21.30;70.70;;;;;;5015634;28;20449;-77
2022/07/01 13:12:53;;;;;;;4.67;1.97;;;21.30;70.40;;;;;;5014155;28;20853;-77
2022/07/01 13:15:22;;;;;;;8.60;2.10;;;21.30;70.30;;;;;;5015860;28;20472;-77
2022/07/01 13:17:50;;;;;;;4.70;1.57;;;21.30;70.00;;;;;;5018912;28;20460;-77
2022/07/01 13:20:19;;;;;;;4.73;1.87;;;21.40;70.00;;;;;;4998440;28;20453;-77
2022/07/01 13:22:48;;;;;;;3.97;1.60;;;21.40;70.00;;;;;;5017914;28;20458;-77